createdAt,value
2019-01-19T00:00:57.667Z,18.24
2019-01-19T00:01:57.506Z,18.24
2019-01-19T00:02:57.588Z,18.24
2019-01-19T00:03:57.636Z,18.23
2019-01-19T00:04:57.492Z,18.23
2019-01-19T00:05:57.865Z,18.22
2019-01-19T00:06:57.547Z,18.22
2019-01-19T00:07:57.532Z,18.22
2019-01-19T00:08:57.603Z,18.21
2019-01-19T00:09:57.541Z,18.2
2019-01-19T00:10:57.690Z,18.19
2019-01-19T00:11:57.587Z,18.19
2019-01-19T00:12:57.622Z,18.19
2019-01-19T00:13:57.541Z,18.18
2019-01-19T00:14:57.728Z,18.18
2019-01-19T00:15:57.701Z,18.17
2019-01-19T00:16:57.603Z,18.17
2019-01-19T00:17:57.742Z,18.16
2019-01-19T00:18:57.821Z,18.14
2019-01-19T00:19:57.656Z,18.14
2019-01-19T00:20:57.501Z,18.15
2019-01-19T00:21:57.969Z,18.16
2019-01-19T00:22:57.858Z,18.16
2019-01-19T00:23:57.555Z,18.14
2019-01-19T00:24:57.830Z,18.14
2019-01-19T00:25:57.598Z,18.11
2019-01-19T00:26:57.730Z,18.12
2019-01-19T00:27:57.825Z,18.11
2019-01-19T00:28:58.221Z,18.11
2019-01-19T00:29:57.777Z,18.1
2019-01-19T00:30:57.885Z,18.09
2019-01-19T00:31:58.121Z,18.11
2019-01-19T00:32:57.807Z,18.1
2019-01-19T00:33:57.726Z,18.09
2019-01-19T00:34:57.630Z,18.09
2019-01-19T00:35:57.550Z,18.11
2019-01-19T00:36:57.757Z,18.1
2019-01-19T00:37:57.595Z,18.08
2019-01-19T00:38:58.010Z,18.08
2019-01-19T00:39:57.687Z,18.06
2019-01-19T00:40:58.070Z,18.06
2019-01-19T00:41:59.400Z,18.05
2019-01-19T00:42:58.598Z,18.04
2019-01-19T00:43:58.421Z,18.04
2019-01-19T00:44:57.740Z,18.03
2019-01-19T00:45:57.941Z,18.03
2019-01-19T00:46:58.018Z,18.03
2019-01-19T00:47:59.394Z,18.02
2019-01-19T00:48:57.952Z,18.03
2019-01-19T00:49:57.437Z,18.02
2019-01-19T00:50:57.562Z,18.03
2019-01-19T00:51:57.709Z,18
2019-01-19T00:52:59.071Z,18
2019-01-19T00:53:57.479Z,18
2019-01-19T00:54:57.607Z,18
2019-01-19T00:55:57.739Z,18
2019-01-19T00:56:57.446Z,18.01
2019-01-19T00:57:57.796Z,18
2019-01-19T00:58:57.598Z,18
2019-01-19T00:59:57.458Z,17.98
2019-01-19T01:00:57.879Z,17.98
2019-01-19T01:01:57.668Z,17.97
2019-01-19T01:02:57.466Z,17.98
2019-01-19T01:03:57.645Z,17.98
2019-01-19T01:04:57.771Z,17.98
2019-01-19T01:05:57.496Z,17.98
2019-01-19T01:06:57.585Z,17.97
2019-01-19T01:07:57.565Z,17.97
2019-01-19T01:08:59.329Z,17.97
2019-01-19T01:09:57.590Z,17.97
2019-01-19T01:10:57.833Z,17.96
2019-01-19T01:11:57.950Z,17.97
2019-01-19T01:12:57.554Z,17.95
2019-01-19T01:13:57.929Z,17.96
2019-01-19T01:14:57.659Z,17.95
2019-01-19T01:15:57.838Z,17.94
2019-01-19T01:16:57.629Z,17.93
2019-01-19T01:17:59.336Z,17.93
2019-01-19T01:18:57.977Z,17.94
2019-01-19T01:19:57.907Z,17.94
2019-01-19T01:20:57.685Z,17.93
2019-01-19T01:21:57.987Z,17.91
2019-01-19T01:22:57.908Z,17.91
2019-01-19T01:23:57.707Z,17.9
2019-01-19T01:24:57.741Z,17.9
2019-01-19T01:25:58.100Z,17.89
2019-01-19T01:26:57.724Z,17.9
2019-01-19T01:27:57.740Z,17.9
2019-01-19T01:28:57.413Z,17.89
2019-01-19T01:29:57.740Z,17.88
2019-01-19T01:30:57.607Z,17.87
2019-01-19T01:31:57.937Z,17.89
2019-01-19T01:32:57.623Z,17.88
2019-01-19T01:33:57.454Z,17.87
2019-01-19T01:34:57.908Z,17.87
2019-01-19T01:35:57.702Z,17.85
2019-01-19T01:36:57.812Z,17.86
2019-01-19T01:37:57.431Z,17.87
2019-01-19T01:38:57.590Z,17.85
2019-01-19T01:39:57.638Z,17.85
2019-01-19T01:40:57.959Z,17.84
2019-01-19T01:41:58.032Z,17.85
2019-01-19T01:42:57.870Z,17.86
2019-01-19T01:43:57.398Z,17.84
2019-01-19T01:44:57.523Z,17.83
2019-01-19T01:45:57.608Z,17.84
2019-01-19T01:46:57.648Z,17.84
2019-01-19T01:47:57.678Z,17.82
2019-01-19T01:48:57.600Z,17.84
2019-01-19T01:49:57.318Z,17.82
2019-01-19T01:50:57.529Z,17.83
2019-01-19T01:51:57.579Z,17.83
2019-01-19T01:52:57.612Z,17.82
2019-01-19T01:53:57.611Z,17.82
2019-01-19T01:54:57.587Z,17.82
2019-01-19T01:55:57.595Z,17.81
2019-01-19T01:56:57.494Z,17.81
2019-01-19T01:57:57.488Z,17.79
2019-01-19T01:58:57.659Z,17.8
2019-01-19T01:59:57.641Z,17.79
2019-01-19T02:00:57.618Z,17.77
2019-01-19T02:01:57.686Z,17.79
2019-01-19T02:02:57.717Z,17.79
2019-01-19T02:03:57.841Z,17.78
2019-01-19T02:04:58.283Z,17.77
2019-01-19T02:05:58.493Z,17.77
2019-01-19T02:06:57.703Z,17.77
2019-01-19T02:07:57.814Z,17.78
2019-01-19T02:08:57.856Z,17.76
2019-01-19T02:09:57.594Z,17.77
2019-01-19T02:10:57.621Z,17.75
2019-01-19T02:11:57.479Z,17.75
2019-01-19T02:12:57.743Z,17.75
2019-01-19T02:13:57.606Z,17.74
2019-01-19T02:14:57.761Z,17.74
2019-01-19T02:15:57.576Z,17.74
2019-01-19T02:16:57.606Z,17.74
2019-01-19T02:17:57.387Z,17.73
2019-01-19T02:18:57.640Z,17.71
2019-01-19T02:19:57.574Z,17.73
2019-01-19T02:20:57.830Z,17.73
2019-01-19T02:21:57.818Z,17.72
2019-01-19T02:22:57.548Z,17.71
2019-01-19T02:23:57.467Z,17.71
2019-01-19T02:24:57.430Z,17.71
2019-01-19T02:25:57.681Z,17.71
2019-01-19T02:26:57.623Z,17.71
2019-01-19T02:27:57.772Z,17.7
2019-01-19T02:28:57.553Z,17.7
2019-01-19T02:29:57.705Z,17.7
2019-01-19T02:30:57.533Z,17.71
2019-01-19T02:31:57.546Z,17.7
2019-01-19T02:32:57.601Z,17.69
2019-01-19T02:33:57.612Z,17.69
2019-01-19T02:34:57.827Z,17.71
2019-01-19T02:35:57.431Z,17.69
2019-01-19T02:36:57.448Z,17.69
2019-01-19T02:37:57.829Z,17.68
2019-01-19T02:38:57.686Z,17.68
2019-01-19T02:39:57.704Z,17.68
2019-01-19T02:40:57.645Z,17.67
2019-01-19T02:41:57.515Z,17.66
2019-01-19T02:42:57.610Z,17.66
2019-01-19T02:43:57.769Z,17.65
2019-01-19T02:44:57.459Z,17.64
2019-01-19T02:45:58.240Z,17.66
2019-01-19T02:46:58.010Z,17.65
2019-01-19T02:47:57.690Z,17.65
2019-01-19T02:48:57.783Z,17.64
2019-01-19T02:49:57.566Z,17.65
2019-01-19T02:50:57.521Z,17.65
2019-01-19T02:51:57.649Z,17.64
2019-01-19T02:52:57.754Z,17.63
2019-01-19T02:53:57.905Z,17.63
2019-01-19T02:54:57.541Z,17.64
2019-01-19T02:55:58.262Z,17.63
2019-01-19T02:56:57.708Z,17.62
2019-01-19T02:57:57.986Z,17.62
2019-01-19T02:58:57.571Z,17.62
2019-01-19T02:59:59.442Z,17.6
2019-01-19T03:00:57.445Z,17.59
2019-01-19T03:01:57.519Z,17.6
2019-01-19T03:02:57.592Z,17.62
2019-01-19T03:03:57.346Z,17.6
2019-01-19T03:04:58.537Z,17.59
2019-01-19T03:05:57.536Z,17.61
2019-01-19T03:06:57.445Z,17.58
2019-01-19T03:07:57.520Z,17.58
2019-01-19T03:08:57.618Z,17.57
2019-01-19T03:09:57.870Z,17.58
2019-01-19T03:10:57.880Z,17.58
2019-01-19T03:11:57.509Z,17.57
2019-01-19T03:12:57.462Z,17.56
2019-01-19T03:13:57.752Z,17.56
2019-01-19T03:14:57.882Z,17.57
2019-01-19T03:15:57.940Z,17.55
2019-01-19T03:16:57.501Z,17.56
2019-01-19T03:17:57.807Z,17.56
2019-01-19T03:18:57.526Z,17.55
2019-01-19T03:19:57.523Z,17.56
2019-01-19T03:20:57.712Z,17.58
2019-01-19T03:21:57.528Z,17.54
2019-01-19T03:22:57.913Z,17.55
2019-01-19T03:23:57.552Z,17.54
2019-01-19T03:24:57.347Z,17.53
2019-01-19T03:25:57.518Z,17.55
2019-01-19T03:26:57.865Z,17.54
2019-01-19T03:27:57.573Z,17.53
2019-01-19T03:28:57.703Z,17.53
2019-01-19T03:29:57.637Z,17.54
2019-01-19T03:30:57.718Z,17.52
2019-01-19T03:31:57.523Z,17.51
2019-01-19T03:32:58.046Z,17.53
2019-01-19T03:33:57.590Z,17.51
2019-01-19T03:34:57.552Z,17.51
2019-01-19T03:36:04.234Z,17.5
2019-01-19T03:36:57.518Z,17.5
2019-01-19T03:37:57.512Z,17.51
2019-01-19T03:38:57.514Z,17.5
2019-01-19T03:39:57.503Z,17.51
2019-01-19T03:40:57.436Z,17.49
2019-01-19T03:41:57.594Z,17.51
2019-01-19T03:42:57.357Z,17.49
2019-01-19T03:43:58.124Z,17.47
2019-01-19T03:44:57.525Z,17.48
2019-01-19T03:45:57.518Z,17.48
2019-01-19T03:46:57.810Z,17.48
2019-01-19T03:47:57.639Z,17.48
2019-01-19T03:48:57.651Z,17.46
2019-01-19T03:49:57.804Z,17.47
2019-01-19T03:50:57.693Z,17.47
2019-01-19T03:51:57.846Z,17.47
2019-01-19T03:52:57.827Z,17.46
2019-01-19T03:53:57.637Z,17.46
2019-01-19T03:54:57.498Z,17.45
2019-01-19T03:55:57.525Z,17.45
2019-01-19T03:56:57.552Z,17.46
2019-01-19T03:57:57.461Z,17.46
2019-01-19T03:58:57.542Z,17.45
2019-01-19T03:59:57.693Z,17.43
2019-01-19T04:00:57.830Z,17.43
2019-01-19T04:01:57.649Z,17.44
2019-01-19T04:02:57.514Z,17.43
2019-01-19T04:03:57.744Z,17.42
2019-01-19T04:04:57.627Z,17.43
2019-01-19T04:05:57.594Z,17.43
2019-01-19T04:06:57.650Z,17.42
2019-01-19T04:07:57.486Z,17.43
2019-01-19T04:08:57.860Z,17.42
2019-01-19T04:09:57.384Z,17.41
2019-01-19T04:10:59.391Z,17.41
2019-01-19T04:11:58.577Z,17.41
2019-01-19T04:12:57.686Z,17.41
2019-01-19T04:13:57.796Z,17.4
2019-01-19T04:14:58.522Z,17.39
2019-01-19T04:15:57.587Z,17.4
2019-01-19T04:16:57.815Z,17.37
2019-01-19T04:17:57.819Z,17.38
2019-01-19T04:18:57.640Z,17.39
2019-01-19T04:19:57.755Z,17.37
2019-01-19T04:20:57.519Z,17.38
2019-01-19T04:21:57.458Z,17.38
2019-01-19T04:22:57.870Z,17.38
2019-01-19T04:23:57.513Z,17.37
2019-01-19T04:24:57.681Z,17.37
2019-01-19T04:25:57.452Z,17.37
2019-01-19T04:26:57.609Z,17.36
2019-01-19T04:27:57.729Z,17.36
2019-01-19T04:28:57.650Z,17.36
2019-01-19T04:29:59.424Z,17.37
2019-01-19T04:30:57.331Z,17.35
2019-01-19T04:31:57.854Z,17.36
2019-01-19T04:32:57.511Z,17.35
2019-01-19T04:33:57.718Z,17.35
2019-01-19T04:34:57.431Z,17.35
2019-01-19T04:35:57.971Z,17.34
2019-01-19T04:36:57.654Z,17.33
2019-01-19T04:37:57.465Z,17.32
2019-01-19T04:38:57.757Z,17.33
2019-01-19T04:39:57.501Z,17.33
2019-01-19T04:40:58.007Z,17.34
2019-01-19T04:41:57.518Z,17.34
2019-01-19T04:42:57.619Z,17.33
2019-01-19T04:43:57.806Z,17.36
2019-01-19T04:44:57.604Z,17.36
2019-01-19T04:45:57.457Z,17.37
2019-01-19T04:46:57.637Z,17.38
2019-01-19T04:47:57.834Z,17.39
2019-01-19T04:48:59.252Z,17.38
2019-01-19T04:49:57.556Z,17.4
2019-01-19T04:50:57.853Z,17.41
2019-01-19T04:51:57.669Z,17.41
2019-01-19T04:52:57.534Z,17.42
2019-01-19T04:53:57.504Z,17.44
2019-01-19T04:54:57.703Z,17.44
2019-01-19T04:55:57.560Z,17.44
2019-01-19T04:56:57.857Z,17.44
2019-01-19T04:57:57.531Z,17.46
2019-01-19T04:58:57.717Z,17.48
2019-01-19T04:59:58.450Z,17.49
2019-01-19T05:00:57.665Z,17.51
2019-01-19T05:01:57.828Z,17.51
2019-01-19T05:02:57.441Z,17.52
2019-01-19T05:03:57.798Z,17.52
2019-01-19T05:04:57.865Z,17.54
2019-01-19T05:05:57.884Z,17.55
2019-01-19T05:06:57.267Z,17.55
2019-01-19T05:07:57.713Z,17.56
2019-01-19T05:08:57.628Z,17.58
2019-01-19T05:09:57.671Z,17.59
2019-01-19T05:10:57.602Z,17.61
2019-01-19T05:11:57.548Z,17.61
2019-01-19T05:12:57.655Z,17.62
2019-01-19T05:13:57.542Z,17.63
2019-01-19T05:14:57.631Z,17.66
2019-01-19T05:15:57.347Z,17.68
2019-01-19T05:16:57.694Z,17.69
2019-01-19T05:17:57.534Z,17.7
2019-01-19T05:18:57.247Z,17.72
2019-01-19T05:19:57.565Z,17.75
2019-01-19T05:20:57.516Z,17.75
2019-01-19T05:21:57.602Z,17.77
2019-01-19T05:22:57.581Z,17.8
2019-01-19T05:23:57.689Z,17.83
2019-01-19T05:24:57.556Z,17.85
2019-01-19T05:25:57.420Z,17.87
2019-01-19T05:26:57.461Z,17.88
2019-01-19T05:27:57.706Z,17.89
2019-01-19T05:28:57.298Z,17.92
2019-01-19T05:29:57.499Z,17.94
2019-01-19T05:30:59.205Z,17.95
2019-01-19T05:31:57.612Z,17.96
2019-01-19T05:32:57.976Z,17.99
2019-01-19T05:33:57.516Z,18
2019-01-19T05:34:57.315Z,18.02
2019-01-19T05:35:57.915Z,18.04
2019-01-19T05:36:57.419Z,18.05
2019-01-19T05:37:57.480Z,18.07
2019-01-19T05:38:57.799Z,18.09
2019-01-19T05:39:57.699Z,18.09
2019-01-19T05:40:57.588Z,18.12
2019-01-19T05:41:57.437Z,18.14
2019-01-19T05:42:57.449Z,18.16
2019-01-19T05:43:57.937Z,18.17
2019-01-19T05:44:57.320Z,18.18
2019-01-19T05:45:57.566Z,18.21
2019-01-19T05:46:57.793Z,18.21
2019-01-19T05:47:57.576Z,18.24
2019-01-19T05:48:57.991Z,18.25
2019-01-19T05:49:57.482Z,18.25
2019-01-19T05:50:57.383Z,18.27
2019-01-19T05:51:57.466Z,18.28
2019-01-19T05:52:57.887Z,18.3
2019-01-19T05:53:57.683Z,18.32
2019-01-19T05:54:57.698Z,18.33
2019-01-19T05:55:57.759Z,18.33
2019-01-19T05:56:57.693Z,18.35
2019-01-19T05:57:57.731Z,18.35
2019-01-19T05:58:59.330Z,18.35
2019-01-19T05:59:57.527Z,18.37
2019-01-19T06:00:57.643Z,18.38
2019-01-19T06:01:57.364Z,18.39
2019-01-19T06:02:57.542Z,18.39
2019-01-19T06:03:57.473Z,18.42
2019-01-19T06:04:57.514Z,18.42
2019-01-19T06:05:57.868Z,18.43
2019-01-19T06:06:57.562Z,18.45
2019-01-19T06:07:57.261Z,18.47
2019-01-19T06:08:57.901Z,18.46
2019-01-19T06:09:59.279Z,18.47
2019-01-19T06:10:58.835Z,18.5
2019-01-19T06:11:57.936Z,18.49
2019-01-19T06:12:57.570Z,18.51
2019-01-19T06:13:57.363Z,18.52
2019-01-19T06:14:57.514Z,18.54
2019-01-19T06:15:57.281Z,18.53
2019-01-19T06:16:57.647Z,18.53
2019-01-19T06:17:57.546Z,18.56
2019-01-19T06:18:57.807Z,18.57
2019-01-19T06:19:57.405Z,18.58
2019-01-19T06:20:57.877Z,18.58
2019-01-19T06:21:57.317Z,18.58
2019-01-19T06:22:57.710Z,18.59
2019-01-19T06:23:57.671Z,18.59
2019-01-19T06:24:57.558Z,18.61
2019-01-19T06:25:57.423Z,18.61
2019-01-19T06:26:57.685Z,18.61
2019-01-19T06:27:57.486Z,18.62
2019-01-19T06:28:59.234Z,18.63
2019-01-19T06:29:57.502Z,18.65
2019-01-19T06:30:57.293Z,18.66
2019-01-19T06:31:57.658Z,18.66
2019-01-19T06:32:57.775Z,18.67
2019-01-19T06:33:57.459Z,18.67
2019-01-19T06:34:59.193Z,18.68
2019-01-19T06:35:57.689Z,18.69
2019-01-19T06:36:57.542Z,18.71
2019-01-19T06:37:57.356Z,18.7
2019-01-19T06:38:57.394Z,18.72
2019-01-19T06:39:57.527Z,18.74
2019-01-19T06:40:57.705Z,18.74
2019-01-19T06:41:58.007Z,18.73
2019-01-19T06:42:58.031Z,18.74
2019-01-19T06:43:57.257Z,18.74
2019-01-19T06:44:57.408Z,18.75
2019-01-19T06:45:57.364Z,18.77
2019-01-19T06:46:57.875Z,18.76
2019-01-19T06:47:58.645Z,18.77
2019-01-19T06:48:57.674Z,18.78
2019-01-19T06:49:57.667Z,18.78
2019-01-19T06:50:57.588Z,18.79
2019-01-19T06:51:57.576Z,18.8
2019-01-19T06:52:57.731Z,18.8
2019-01-19T06:54:01.615Z,18.8
2019-01-19T06:54:57.599Z,18.81
2019-01-19T06:55:57.519Z,18.82
2019-01-19T06:56:57.547Z,18.82
2019-01-19T06:57:57.641Z,18.82
2019-01-19T06:58:57.529Z,18.83
2019-01-19T06:59:57.547Z,18.84
2019-01-19T07:00:57.668Z,18.84
2019-01-19T07:01:57.522Z,18.85
2019-01-19T07:02:57.272Z,18.86
2019-01-19T07:03:57.304Z,18.85
2019-01-19T07:04:57.518Z,18.85
2019-01-19T07:05:57.691Z,18.85
2019-01-19T07:07:02.462Z,18.85
2019-01-19T07:07:57.638Z,18.86
2019-01-19T07:08:57.795Z,18.85
2019-01-19T07:09:57.370Z,18.85
2019-01-19T07:10:57.489Z,18.87
2019-01-19T07:11:57.427Z,18.86
2019-01-19T07:12:57.853Z,18.86
2019-01-19T07:13:57.415Z,18.85
2019-01-19T07:14:57.421Z,18.85
2019-01-19T07:15:57.787Z,18.86
2019-01-19T07:16:57.785Z,18.86
2019-01-19T07:17:57.763Z,18.85
2019-01-19T07:18:57.715Z,18.87
2019-01-19T07:19:58.369Z,18.87
2019-01-19T07:20:57.525Z,18.86
2019-01-19T07:21:58.352Z,18.86
2019-01-19T07:22:57.840Z,18.87
2019-01-19T07:23:57.829Z,18.86
2019-01-19T07:24:57.470Z,18.86
2019-01-19T07:25:57.554Z,18.86
2019-01-19T07:26:58.166Z,18.85
2019-01-19T07:27:57.785Z,18.85
2019-01-19T07:28:57.332Z,18.85
2019-01-19T07:29:57.428Z,18.85
2019-01-19T07:30:57.448Z,18.85
2019-01-19T07:31:57.378Z,18.84
2019-01-19T07:32:57.613Z,18.83
2019-01-19T07:33:57.491Z,18.83
2019-01-19T07:34:57.706Z,18.85
2019-01-19T07:35:57.609Z,18.85
2019-01-19T07:36:57.721Z,18.84
2019-01-19T07:37:57.555Z,18.85
2019-01-19T07:38:57.424Z,18.85
2019-01-19T07:39:57.668Z,18.85
2019-01-19T07:40:57.570Z,18.86
2019-01-19T07:41:57.733Z,18.86
2019-01-19T07:42:57.598Z,18.86
2019-01-19T07:43:58.170Z,18.86
2019-01-19T07:44:57.692Z,18.86
2019-01-19T07:45:57.418Z,18.88
2019-01-19T07:46:58.000Z,18.87
2019-01-19T07:47:58.006Z,18.87
2019-01-19T07:48:57.885Z,18.88
2019-01-19T07:49:57.689Z,18.89
2019-01-19T07:50:57.724Z,18.89
2019-01-19T07:51:57.504Z,18.9
2019-01-19T07:52:57.901Z,18.9
2019-01-19T07:53:57.316Z,18.91
2019-01-19T07:54:58.569Z,18.91
2019-01-19T07:55:57.764Z,18.92
2019-01-19T07:56:57.769Z,18.93
2019-01-19T07:57:57.827Z,18.93
2019-01-19T07:58:57.494Z,18.93
2019-01-19T07:59:57.474Z,18.93
2019-01-19T08:00:57.350Z,18.94
2019-01-19T08:01:57.356Z,18.95
2019-01-19T08:02:57.479Z,18.95
2019-01-19T08:03:57.332Z,18.96
2019-01-19T08:04:57.447Z,18.96
2019-01-19T08:05:57.541Z,18.97
2019-01-19T08:06:57.446Z,18.97
2019-01-19T08:07:57.568Z,18.97
2019-01-19T08:08:57.835Z,18.99
2019-01-19T08:09:57.773Z,19
2019-01-19T08:10:57.337Z,18.99
2019-01-19T08:11:57.339Z,19
2019-01-19T08:12:58.300Z,19.01
2019-01-19T08:13:57.685Z,19.01
2019-01-19T08:14:57.526Z,19.01
2019-01-19T08:15:57.599Z,19.02
2019-01-19T08:16:57.453Z,19.01
2019-01-19T08:17:57.191Z,19.03
2019-01-19T08:18:57.484Z,19.03
2019-01-19T08:19:57.690Z,19.03
2019-01-19T08:20:58.034Z,19.04
2019-01-19T08:21:57.775Z,19.04
2019-01-19T08:22:57.481Z,19.05
2019-01-19T08:23:57.866Z,19.05
2019-01-19T08:24:57.321Z,19.04
2019-01-19T08:25:57.407Z,19.09
2019-01-19T08:26:57.880Z,19.1
2019-01-19T08:27:57.585Z,19.12
2019-01-19T08:28:57.770Z,19.12
2019-01-19T08:29:57.911Z,19.14
2019-01-19T08:30:57.595Z,19.15
2019-01-19T08:31:57.433Z,19.17
2019-01-19T08:32:57.902Z,19.17
2019-01-19T08:33:57.315Z,19.17
2019-01-19T08:34:57.627Z,19.2
2019-01-19T08:35:57.615Z,19.2
2019-01-19T08:36:57.581Z,19.18
2019-01-19T08:37:57.864Z,19.2
2019-01-19T08:38:57.686Z,19.19
2019-01-19T08:39:57.335Z,19.21
2019-01-19T08:40:57.420Z,19.21
2019-01-19T08:41:57.666Z,19.22
2019-01-19T08:42:57.244Z,19.23
2019-01-19T08:43:57.602Z,19.22
2019-01-19T08:44:57.692Z,19.22
2019-01-19T08:45:57.391Z,19.22
2019-01-19T08:46:57.611Z,19.22
2019-01-19T08:47:57.676Z,19.23
2019-01-19T08:48:57.246Z,19.23
2019-01-19T08:49:57.533Z,19.23
2019-01-19T08:50:57.524Z,19.23
2019-01-19T08:51:57.560Z,19.23
2019-01-19T08:52:57.214Z,19.24
2019-01-19T08:53:57.484Z,19.24
2019-01-19T08:54:58.540Z,19.23
2019-01-19T08:55:57.652Z,19.23
2019-01-19T08:56:57.985Z,19.23
2019-01-19T08:57:57.411Z,19.23
2019-01-19T08:58:57.290Z,19.25
2019-01-19T08:59:57.385Z,19.25
2019-01-19T09:00:57.811Z,19.24
2019-01-19T09:01:57.320Z,19.24
2019-01-19T09:02:58.338Z,19.23
2019-01-19T09:03:59.303Z,19.24
2019-01-19T09:04:57.362Z,19.24
2019-01-19T09:05:57.774Z,19.24
2019-01-19T09:06:57.357Z,19.24
2019-01-19T09:07:57.293Z,19.24
2019-01-19T09:08:57.320Z,19.25
2019-01-19T09:09:57.328Z,19.24
2019-01-19T09:10:57.083Z,19.23
2019-01-19T09:11:57.677Z,19.23
2019-01-19T09:12:57.763Z,19.24
2019-01-19T09:13:57.290Z,19.23
2019-01-19T09:14:57.256Z,19.23
2019-01-19T09:15:57.339Z,19.23
2019-01-19T09:16:58.209Z,19.23
2019-01-19T09:17:58.194Z,19.22
2019-01-19T09:18:57.674Z,19.23
2019-01-19T09:19:57.654Z,19.24
2019-01-19T09:20:57.391Z,19.23
2019-01-19T09:21:57.373Z,19.23
2019-01-19T09:22:57.792Z,19.24
2019-01-19T09:23:58.136Z,19.23
2019-01-19T09:24:57.509Z,19.23
2019-01-19T09:25:58.291Z,19.25
2019-01-19T09:26:57.695Z,19.25
2019-01-19T09:27:57.923Z,19.25
2019-01-19T09:28:57.397Z,19.28
2019-01-19T09:29:57.743Z,19.26
2019-01-19T09:30:57.457Z,19.26
2019-01-19T09:31:57.731Z,19.26
2019-01-19T09:32:57.748Z,19.28
2019-01-19T09:33:57.348Z,19.26
2019-01-19T09:34:57.470Z,19.27
2019-01-19T09:35:57.460Z,19.27
2019-01-19T09:36:57.335Z,19.28
2019-01-19T09:37:58.749Z,19.27
2019-01-19T09:38:57.954Z,19.28
2019-01-19T09:39:57.780Z,19.29
2019-01-19T09:41:01.314Z,19.28
2019-01-19T09:41:57.271Z,19.27
2019-01-19T09:42:57.682Z,19.3
2019-01-19T09:43:58.041Z,19.29
2019-01-19T09:44:57.344Z,19.29
2019-01-19T09:45:57.330Z,19.29
2019-01-19T09:46:58.097Z,19.3
2019-01-19T09:47:58.658Z,19.29
2019-01-19T09:48:57.594Z,19.29
2019-01-19T09:49:57.475Z,19.3
2019-01-19T09:50:57.693Z,19.31
2019-01-19T09:51:57.583Z,19.32
2019-01-19T09:52:58.187Z,19.32
2019-01-19T09:53:57.383Z,19.31
2019-01-19T09:54:59.318Z,19.33
2019-01-19T09:55:57.621Z,19.34
2019-01-19T09:56:57.643Z,19.33
2019-01-19T09:57:57.962Z,19.34
2019-01-19T09:58:57.978Z,19.33
2019-01-19T09:59:57.770Z,19.34
2019-01-19T10:01:00.081Z,19.35
2019-01-19T10:01:57.834Z,19.36
2019-01-19T10:02:57.648Z,19.37
2019-01-19T10:03:57.622Z,19.36
2019-01-19T10:04:57.612Z,19.37
2019-01-19T10:05:57.567Z,19.37
2019-01-19T10:06:57.707Z,19.37
2019-01-19T10:07:57.357Z,19.36
2019-01-19T10:08:57.205Z,19.35
2019-01-19T10:09:57.421Z,19.35
2019-01-19T10:10:57.495Z,19.35
2019-01-19T10:11:59.377Z,19.37
2019-01-19T10:12:57.367Z,19.36
2019-01-19T10:13:57.739Z,19.37
2019-01-19T10:14:57.722Z,19.35
2019-01-19T10:15:57.680Z,19.35
2019-01-19T10:16:57.173Z,19.35
2019-01-19T10:17:57.373Z,19.35
2019-01-19T10:18:57.454Z,19.35
2019-01-19T10:19:57.298Z,19.35
2019-01-19T10:20:57.254Z,19.36
2019-01-19T10:21:57.363Z,19.35
2019-01-19T10:22:57.556Z,19.35
2019-01-19T10:23:57.354Z,19.35
2019-01-19T10:24:57.326Z,19.34
2019-01-19T10:25:57.494Z,19.35
2019-01-19T10:26:57.739Z,19.36
2019-01-19T10:27:57.618Z,19.35
2019-01-19T10:28:57.526Z,19.38
2019-01-19T10:29:57.174Z,19.39
2019-01-19T10:30:57.669Z,19.39
2019-01-19T10:31:57.640Z,19.35
2019-01-19T10:32:57.614Z,19.39
2019-01-19T10:33:57.554Z,19.4
2019-01-19T10:34:57.480Z,19.42
2019-01-19T10:35:57.585Z,19.4
2019-01-19T10:36:58.109Z,19.41
2019-01-19T10:37:57.918Z,19.42
2019-01-19T10:38:57.574Z,19.42
2019-01-19T10:39:57.521Z,19.44
2019-01-19T10:40:57.963Z,19.45
2019-01-19T10:41:57.565Z,19.44
2019-01-19T10:42:57.325Z,19.45
2019-01-19T10:43:57.597Z,19.46
2019-01-19T10:44:57.641Z,19.47
2019-01-19T10:45:57.753Z,19.47
2019-01-19T10:46:57.839Z,19.47
2019-01-19T10:47:57.603Z,19.49
2019-01-19T10:48:57.399Z,19.5
2019-01-19T10:49:57.682Z,19.5
2019-01-19T10:50:57.371Z,19.5
2019-01-19T10:51:59.416Z,19.51
2019-01-19T10:52:57.489Z,19.52
2019-01-19T10:53:57.648Z,19.52
2019-01-19T10:54:57.600Z,19.52
2019-01-19T10:55:57.751Z,19.54
2019-01-19T10:56:57.429Z,19.54
2019-01-19T10:57:57.317Z,19.56
2019-01-19T10:58:57.748Z,19.56
2019-01-19T10:59:57.578Z,19.56
2019-01-19T11:00:57.614Z,19.59
2019-01-19T11:01:57.872Z,19.6
2019-01-19T11:02:57.958Z,19.59
2019-01-19T11:03:57.286Z,19.59
2019-01-19T11:04:58.315Z,19.59
2019-01-19T11:05:57.630Z,19.57
2019-01-19T11:06:57.714Z,19.58
2019-01-19T11:08:03.387Z,19.58
2019-01-19T11:08:57.207Z,19.58
2019-01-19T11:09:58.324Z,19.59
2019-01-19T11:10:57.784Z,19.58
2019-01-19T11:11:57.299Z,19.58
2019-01-19T11:12:57.955Z,19.57
2019-01-19T11:13:57.291Z,19.57
2019-01-19T11:14:59.324Z,19.58
2019-01-19T11:15:57.414Z,19.58
2019-01-19T11:16:57.582Z,19.61
2019-01-19T11:17:57.460Z,19.65
2019-01-19T11:18:57.811Z,19.64
2019-01-19T11:19:57.237Z,19.67
2019-01-19T11:20:57.736Z,19.67
2019-01-19T11:21:57.251Z,19.71
2019-01-19T11:22:58.074Z,19.75
2019-01-19T11:23:57.334Z,19.76
2019-01-19T11:24:57.123Z,19.82
2019-01-19T11:25:57.905Z,19.8
2019-01-19T11:26:57.798Z,19.78
2019-01-19T11:27:57.878Z,19.79
2019-01-19T11:28:57.893Z,19.77
2019-01-19T11:29:57.326Z,19.76
2019-01-19T11:30:57.661Z,19.77
2019-01-19T11:31:58.271Z,19.76
2019-01-19T11:32:58.163Z,19.75
2019-01-19T11:33:57.417Z,19.77
2019-01-19T11:34:57.357Z,19.8
2019-01-19T11:35:57.541Z,19.77
2019-01-19T11:36:57.765Z,19.79
2019-01-19T11:37:57.315Z,19.77
2019-01-19T11:38:57.592Z,19.78
2019-01-19T11:39:57.755Z,19.79
2019-01-19T11:40:57.794Z,19.81
2019-01-19T11:41:57.820Z,19.76
2019-01-19T11:42:57.938Z,19.78
2019-01-19T11:43:57.934Z,19.76
2019-01-19T11:44:57.302Z,19.8
2019-01-19T11:45:57.730Z,19.78
2019-01-19T11:46:58.051Z,19.82
2019-01-19T11:47:57.310Z,19.82
2019-01-19T11:48:57.106Z,19.83
2019-01-19T11:49:57.561Z,19.84
2019-01-19T11:50:57.623Z,19.86
2019-01-19T11:51:57.568Z,19.85
2019-01-19T11:52:57.587Z,19.87
2019-01-19T11:53:57.597Z,19.87
2019-01-19T11:54:57.643Z,19.86
2019-01-19T11:55:57.975Z,19.92
2019-01-19T11:56:57.320Z,19.91
2019-01-19T11:57:57.693Z,19.94
2019-01-19T11:58:57.929Z,19.93
2019-01-19T11:59:57.364Z,19.95
2019-01-19T12:00:57.456Z,19.93
2019-01-19T12:01:57.270Z,19.94
2019-01-19T12:02:57.364Z,19.96
2019-01-19T12:03:57.713Z,19.96
2019-01-19T12:04:57.165Z,19.96
2019-01-19T12:05:57.779Z,19.96
2019-01-19T12:06:58.349Z,19.97
2019-01-19T12:07:58.129Z,19.97
2019-01-19T12:08:57.807Z,20
2019-01-19T12:09:57.885Z,19.99
2019-01-19T12:10:57.502Z,20
2019-01-19T12:11:58.092Z,20
2019-01-19T12:12:58.923Z,20.01
2019-01-19T12:13:58.041Z,20.01
2019-01-19T12:14:57.317Z,20.03
2019-01-19T12:15:57.151Z,20.02
2019-01-19T12:16:57.203Z,20.02
2019-01-19T12:17:57.907Z,20.03
2019-01-19T12:18:57.666Z,20.02
2019-01-19T12:19:57.652Z,20.02
2019-01-19T12:20:58.054Z,20.03
2019-01-19T12:21:57.157Z,20.02
2019-01-19T12:22:57.646Z,20.03
2019-01-19T12:23:57.590Z,20.03
2019-01-19T12:24:57.927Z,20.04
2019-01-19T12:25:57.986Z,20.04
2019-01-19T12:26:57.332Z,20.05
2019-01-19T12:27:58.266Z,20.04
2019-01-19T12:28:57.395Z,20.07
2019-01-19T12:29:57.558Z,20.06
2019-01-19T12:30:57.717Z,20.07
2019-01-19T12:31:57.854Z,20.06
2019-01-19T12:32:57.804Z,20.05
2019-01-19T12:33:58.218Z,20.05
2019-01-19T12:34:58.810Z,20.05
2019-01-19T12:35:58.206Z,20.04
2019-01-19T12:36:57.415Z,20.07
2019-01-19T12:37:57.565Z,20.07
2019-01-19T12:38:57.802Z,20.08
2019-01-19T12:39:57.880Z,20.06
2019-01-19T12:40:57.582Z,20.05
2019-01-19T12:41:58.122Z,20.04
2019-01-19T12:42:57.246Z,20.05
2019-01-19T12:43:57.375Z,20.05
2019-01-19T12:44:57.565Z,20.04
2019-01-19T12:45:57.119Z,20.03
2019-01-19T12:46:57.577Z,20.02
2019-01-19T12:47:57.537Z,20.02
2019-01-19T12:48:57.362Z,20.02
2019-01-19T12:49:58.233Z,20.02
2019-01-19T12:50:57.632Z,20.02
2019-01-19T12:51:57.934Z,20.01
2019-01-19T12:52:57.594Z,20.01
2019-01-19T12:53:57.718Z,20.02
2019-01-19T12:54:57.390Z,20
2019-01-19T12:55:57.271Z,20